Time;durP1;ratioP1;P1;durP2;ratioP2;P2;SDS_P1;SDS_P2;PMS_P1;PMS_P2;Temp;Humidity;BMP_temperature;BMP_pressure;BME280_temperature;BME280_humidity;BME280_pressure;Samples;Min_cycle;Max_cycle;Signal;HPM_P1;HPM_P2
2023/09/19 00:00:42;;;;;;;;;;;;;;;11.50;67.57;94934.78;4955784;28;20001;-79
2023/09/19 00:03:08;;;;;;;;;;;;;;;11.36;67.92;94931.28;4966152;28;19951;-80
2023/09/19 00:05:34;;;;;;;;;;;;;;;11.50;67.29;94938.25;4961559;28;20328;-79
2023/09/19 00:07:59;;;;;;;;;;;;;;;11.41;67.11;94933.31;4962092;28;20026;-80
2023/09/19 00:10:26;;;;;;;;;;;;;;;11.18;68.08;94934.47;4971343;28;19998;-79
2023/09/19 00:12:55;;;;;;;;;;;;;;;10.95;68.32;94951.56;4972530;28;19970;-79
2023/09/19 00:15:20;;;;;;;;;;;;;;;11.08;67.51;94945.47;4971570;28;20041;-79
2023/09/19 00:17:45;;;;;;;;;;;;;;;11.00;68.53;94944.63;4971161;28;20393;-79
2023/09/19 00:20:13;;;;;;;;;;;;;;;11.13;67.95;94954.53;4957753;28;20009;-79
2023/09/19 00:22:44;;;;;;;;;;;;;;;11.13;67.66;94951.06;4972983;28;20003;-80
2023/09/19 00:25:12;;;;;;;;;;;;;;;11.30;66.79;94951.53;4963206;28;20458;-79
2023/09/19 00:27:43;;;;;;;;;;;;;;;10.53;69.55;94962.97;4957460;28;19954;-80
2023/09/19 00:30:14;;;;;;;;;;;;;;;10.58;68.72;94960.53;4967242;28;19949;-78
2023/09/19 00:32:39;;;;;;;;;;;;;;;10.60;67.84;94969.16;4969351;28;19967;-79
2023/09/19 00:35:05;;;;;;;;;;;;;;;10.42;68.24;94960.81;4969123;28;20551;-79
2023/09/19 00:37:30;;;;;;;;;;;;;;;9.90;68.40;94974.25;4967330;28;20330;-78
2023/09/19 00:39:55;;;;;;;;;;;;;;;10.09;67.51;94976.31;4967683;28;19972;-79
2023/09/19 00:42:21;;;;;;;;;;;;;;;9.72;68.15;94976.34;4972809;28;20458;-79
2023/09/19 00:44:46;;;;;;;;;;;;;;;9.70;67.84;94986.31;4968476;28;19977;-78
2023/09/19 00:47:16;;;;;;;;;;;;;;;9.75;67.23;94980.44;4972651;28;19955;-80
2023/09/19 00:49:41;;;;;;;;;;;;;;;9.35;68.48;94972.03;4967063;28;20088;-79
2023/09/19 00:52:09;;;;;;;;;;;;;;;9.46;68.06;94982.19;4962514;28;20517;-79
2023/09/19 00:54:35;;;;;;;;;;;;;;;8.91;70.60;94983.28;4967863;28;20055;-79
2023/09/19 00:57:01;;;;;;;;;;;;;;;8.60;71.03;94984.28;4965821;28;20074;-79
2023/09/19 00:59:26;;;;;;;;;;;;;;;8.48;71.50;94986.56;4959047;28;19962;-77
2023/09/19 01:01:53;;;;;;;;;;;;;;;7.95;73.07;94997.91;4966240;28;19972;-78
2023/09/19 01:04:19;;;;;;;;;;;;;;;8.25;71.67;94995.38;4963232;28;20523;-78
2023/09/19 01:06:45;;;;;;;;;;;;;;;7.97;72.41;94989.78;4966527;28;20018;-79
2023/09/19 01:09:11;;;;;;;;;;;;;;;8.18;70.94;94999.75;4951234;28;20023;-78
2023/09/19 01:11:39;;;;;;;;;;;;;;;8.13;70.79;94991.50;4965137;28;19996;-78
2023/09/19 01:14:14;;;;;;;;;;;;;;;7.92;71.02;94992.97;4958397;28;19997;-78
2023/09/19 01:16:58;;;;;;;;;;;;;;;7.92;70.92;94990.31;4966265;28;20159;-78
2023/09/19 01:19:59;;;;;;;;;;;;;;;7.81;71.49;94988.06;4975567;28;20067;-79
2023/09/19 01:22:37;;;;;;;;;;;;;;;7.87;71.14;94990.03;4947110;28;19987;-79
2023/09/19 01:25:22;;;;;;;;;;;;;;;7.58;71.71;94992.31;4965422;28;20110;-79
2023/09/19 01:27:53;;;;;;;;;;;;;;;7.49;71.59;94994.22;4969756;28;20412;-78
2023/09/19 01:30:22;;;;;;;;;;;;;;;7.45;72.36;94992.88;4967858;28;20959;-78
2023/09/19 01:32:47;;;;;;;;;;;;;;;7.75;71.11;94995.69;4960573;28;20733;-78
2023/09/19 01:35:12;;;;;;;;;;;;;;;7.72;71.28;95005.84;4967287;28;19994;-79
2023/09/19 01:37:38;;;;;;;;;;;;;;;7.89;70.44;95006.59;4972428;28;19984;-78
2023/09/19 01:40:05;;;;;;;;;;;;;;;7.81;70.91;94998.66;4966237;28;20032;-77
2023/09/19 01:42:49;;;;;;;;;;;;;;;7.92;70.57;95003.56;4968848;28;19967;-78
2023/09/19 01:45:24;;;;;;;;;;;;;;;7.74;71.39;95004.66;4973761;28;19997;-79
2023/09/19 01:47:58;;;;;;;;;;;;;;;8.01;70.00;95007.81;4970746;28;20009;-78
2023/09/19 01:50:26;;;;;;;;;;;;;;;8.06;70.38;95004.63;4972709;28;20032;-78
2023/09/19 01:52:56;;;;;;;;;;;;;;;8.35;69.03;95013.69;4972553;28;20022;-79
2023/09/19 01:55:22;;;;;;;;;;;;;;;8.34;68.66;95006.75;4968328;28;19959;-78
2023/09/19 01:57:59;;;;;;;;;;;;;;;8.55;68.06;95006.06;4965763;28;19986;-79
2023/09/19 02:00:25;;;;;;;;;;;;;;;8.64;67.86;95006.78;4964422;28;20050;-78
2023/09/19 02:02:52;;;;;;;;;;;;;;;8.51;68.32;95009.25;4966134;28;20401;-79
2023/09/19 02:05:27;;;;;;;;;;;;;;;8.62;68.11;95022.09;4973639;28;19980;-78
2023/09/19 02:07:53;;;;;;;;;;;;;;;8.50;69.18;95020.88;4976017;28;20028;-78
2023/09/19 02:10:18;;;;;;;;;;;;;;;8.39;69.95;95032.72;4960575;28;20010;-78
2023/09/19 02:12:44;;;;;;;;;;;;;;;8.57;69.37;95022.63;4961829;28;20004;-78
2023/09/19 02:15:10;;;;;;;;;;;;;;;8.78;68.90;95021.09;4966307;28;19969;-77
2023/09/19 02:17:35;;;;;;;;;;;;;;;8.53;69.47;95031.09;4972920;28;20055;-78
2023/09/19 02:20:00;;;;;;;;;;;;;;;8.61;70.14;95032.88;4967162;28;20373;-78
2023/09/19 02:22:26;;;;;;;;;;;;;;;8.71;69.27;95038.75;4972948;28;20001;-78
2023/09/19 02:24:53;;;;;;;;;;;;;;;8.96;68.18;95035.88;4970686;28;19984;-78
2023/09/19 02:27:19;;;;;;;;;;;;;;;8.44;69.98;95046.28;4965585;28;20438;-78
2023/09/19 02:29:44;;;;;;;;;;;;;;;8.96;68.96;95043.84;4960869;28;20008;-78
2023/09/19 02:32:09;;;;;;;;;;;;;;;8.64;69.76;95040.47;4963713;28;20078;-78
2023/09/19 02:34:36;;;;;;;;;;;;;;;9.26;67.44;95043.88;4964695;28;19966;-77
2023/09/19 02:37:04;;;;;;;;;;;;;;;9.55;66.34;95044.84;4963230;28;20112;-78
2023/09/19 02:39:30;;;;;;;;;;;;;;;8.71;66.82;95049.38;4954267;28;19961;-78
2023/09/19 02:41:55;;;;;;;;;;;;;;;9.08;65.89;95050.34;4941815;28;19959;-78
2023/09/19 02:44:20;;;;;;;;;;;;;;;8.71;66.41;95053.84;4957297;28;20000;-78
2023/09/19 02:46:46;;;;;;;;;;;;;;;8.77;67.67;95048.63;4971788;28;19983;-78
2023/09/19 02:49:13;;;;;;;;;;;;;;;8.62;66.69;95055.75;4969995;28;19981;-78
2023/09/19 02:51:38;;;;;;;;;;;;;;;8.35;66.92;95064.09;4970344;28;20767;-79
2023/09/19 02:54:03;;;;;;;;;;;;;;;8.57;66.32;95062.41;4970701;28;20001;-78
2023/09/19 02:56:30;;;;;;;;;;;;;;;8.62;65.46;95061.06;4959751;28;20696;-77
2023/09/19 02:58:55;;;;;;;;;;;;;;;8.54;63.77;95062.78;4959472;28;19972;-78
2023/09/19 03:01:21;;;;;;;;;;;;;;;8.28;64.96;95063.97;4982702;28;20399;-77
2023/09/19 03:03:46;;;;;;;;;;;;;;;8.21;64.54;95071.00;4966698;28;20015;-78
2023/09/19 03:06:12;;;;;;;;;;;;;;;7.88;65.72;95063.22;4964445;28;19980;-78
2023/09/19 03:08:39;;;;;;;;;;;;;;;7.71;65.39;95087.13;4962867;28;20482;-77
2023/09/19 03:11:05;;;;;;;;;;;;;;;7.62;67.02;95074.94;4963235;28;20377;-78
2023/09/19 03:13:31;;;;;;;;;;;;;;;7.61;65.82;95083.88;4956377;28;19993;-79
2023/09/19 03:15:58;;;;;;;;;;;;;;;7.22;67.30;95078.41;4966387;28;20380;-79
2023/09/19 03:18:23;;;;;;;;;;;;;;;7.41;68.11;95074.53;4964440;28;19975;-77
2023/09/19 03:20:55;;;;;;;;;;;;;;;7.02;70.33;95089.38;4973727;28;20083;-77
2023/09/19 03:23:20;;;;;;;;;;;;;;;6.90;72.24;95080.09;4947087;28;20090;-79
2023/09/19 03:25:46;;;;;;;;;;;;;;;7.32;71.44;95087.97;4962327;28;20509;-78
2023/09/19 03:28:11;;;;;;;;;;;;;;;7.22;71.33;95082.84;4962674;28;20179;-78
2023/09/19 03:30:38;;;;;;;;;;;;;;;6.93;71.39;95085.06;4964824;28;20275;-78
2023/09/19 03:33:04;;;;;;;;;;;;;;;7.23;69.69;95080.03;4961695;28;20534;-78
2023/09/19 03:35:30;;;;;;;;;;;;;;;7.63;68.27;95073.94;4963619;28;19989;-78
2023/09/19 03:37:55;;;;;;;;;;;;;;;7.51;67.93;95076.13;4948311;28;19999;-78
2023/09/19 03:40:21;;;;;;;;;;;;;;;7.70;67.62;95074.91;4960105;28;20731;-77
2023/09/19 03:42:48;;;;;;;;;;;;;;;7.75;67.38;95077.03;4961802;28;19972;-77
2023/09/19 03:45:14;;;;;;;;;;;;;;;7.44;68.35;95086.59;4970446;28;20007;-77
2023/09/19 03:47:40;;;;;;;;;;;;;;;6.75;70.81;95077.31;4967619;28;20035;-79
2023/09/19 03:50:07;;;;;;;;;;;;;;;6.73;70.74;95097.81;4967593;28;20158;-78
2023/09/19 03:52:32;;;;;;;;;;;;;;;6.93;69.92;95085.06;4965028;28;20000;-78
2023/09/19 03:54:57;;;;;;;;;;;;;;;6.99;69.78;95080.94;4965673;28;20655;-78
2023/09/19 03:57:22;;;;;;;;;;;;;;;7.05;69.81;95082.06;4962446;28;20073;-79
2023/09/19 03:59:48;;;;;;;;;;;;;;;6.92;70.48;95083.44;4971871;28;20148;-77
2023/09/19 04:02:22;;;;;;;;;;;;;;;7.06;69.92;95081.06;4964537;28;20007;-78
2023/09/19 04:04:47;;;;;;;;;;;;;;;7.02;69.19;95089.38;4970208;28;20131;-78
2023/09/19 04:07:12;;;;;;;;;;;;;;;7.07;70.05;95082.75;4953020;28;20092;-78
2023/09/19 04:09:38;;;;;;;;;;;;;;;7.01;70.58;95082.41;4966426;28;19985;-78
2023/09/19 04:12:04;;;;;;;;;;;;;;;6.58;71.75;95087.94;4966323;28;20412;-77
2023/09/19 04:14:30;;;;;;;;;;;;;;;6.64;71.22;95087.25;4960213;28;19972;-78
2023/09/19 04:16:55;;;;;;;;;;;;;;;6.94;70.70;95085.91;4967884;28;20483;-78
2023/09/19 04:19:22;;;;;;;;;;;;;;;6.74;71.17;95091.56;4963858;28;19972;-77
2023/09/19 04:21:47;;;;;;;;;;;;;;;7.02;70.29;95088.53;4962549;28;20707;-79
2023/09/19 04:24:13;;;;;;;;;;;;;;;6.69;71.23;95086.75;4959266;28;19996;-78
2023/09/19 04:26:38;;;;;;;;;;;;;;;6.68;71.18;95093.03;4967246;28;20167;-78
2023/09/19 04:29:04;;;;;;;;;;;;;;;6.70;71.27;95095.53;4964182;28;20053;-79
2023/09/19 04:31:30;;;;;;;;;;;;;;;6.53;72.30;95100.00;4963455;28;20200;-78
2023/09/19 04:33:55;;;;;;;;;;;;;;;6.43;72.32;95093.00;4958789;28;20052;-79
2023/09/19 04:36:22;;;;;;;;;;;;;;;6.34;72.94;95092.19;4958797;28;19987;-77
2023/09/19 04:38:48;;;;;;;;;;;;;;;6.73;71.39;95109.22;4967689;28;20072;-78
2023/09/19 04:41:15;;;;;;;;;;;;;;;7.20;69.65;95100.72;4961103;28;20054;-69
2023/09/19 04:43:40;;;;;;;;;;;;;;;6.70;71.61;95104.28;4970380;28;20377;-69
2023/09/19 04:46:06;;;;;;;;;;;;;;;6.98;70.83;95109.22;4969211;28;20030;-69
2023/09/19 04:48:31;;;;;;;;;;;;;;;7.15;70.16;95106.53;4970568;28;19986;-70
2023/09/19 04:50:57;;;;;;;;;;;;;;;7.05;70.92;95117.31;4968271;28;20339;-69
2023/09/19 04:53:22;;;;;;;;;;;;;;;6.71;72.38;95115.69;4969944;28;20080;-69
2023/09/19 04:55:52;;;;;;;;;;;;;;;7.28;70.19;95116.63;4968355;28;19965;-69
2023/09/19 04:58:19;;;;;;;;;;;;;;;7.70;68.11;95106.69;4969857;28;19959;-69
2023/09/19 05:00:44;;;;;;;;;;;;;;;7.72;67.67;95109.97;4967642;28;20521;-69
2023/09/19 05:03:09;;;;;;;;;;;;;;;8.37;65.47;95095.75;4969501;28;19962;-69
2023/09/19 05:05:35;;;;;;;;;;;;;;;8.38;65.26;95100.88;4965631;28;19987;-70
2023/09/19 05:08:00;;;;;;;;;;;;;;;8.75;63.86;95095.78;4966807;28;19985;-69
2023/09/19 05:10:25;;;;;;;;;;;;;;;8.18;64.28;95100.50;4972408;28;19968;-69
2023/09/19 05:12:53;;;;;;;;;;;;;;;8.90;63.00;95101.13;4966352;28;19984;-69
2023/09/19 05:15:18;;;;;;;;;;;;;;;8.72;63.36;95096.13;4964560;28;19959;-70
2023/09/19 05:17:51;;;;;;;;;;;;;;;8.71;63.49;95094.50;4968504;28;20450;-69
2023/09/19 05:20:17;;;;;;;;;;;;;;;8.75;63.07;95101.09;4966749;28;20408;-69
2023/09/19 05:22:43;;;;;;;;;;;;;;;8.67;63.31;95104.63;4975181;28;19957;-69
2023/09/19 05:25:08;;;;;;;;;;;;;;;9.19;61.81;95104.03;4968684;28;20133;-70
2023/09/19 05:27:33;;;;;;;;;;;;;;;9.08;61.67;95106.13;4964478;28;19970;-69
2023/09/19 05:29:59;;;;;;;;;;;;;;;9.07;61.19;95108.94;4965395;28;19987;-69
2023/09/19 05:32:24;;;;;;;;;;;;;;;9.04;61.44;95112.81;4969209;28;19996;-70
2023/09/19 05:34:52;;;;;;;;;;;;;;;9.04;61.60;95111.97;4964382;28;19972;-70
2023/09/19 05:37:18;;;;;;;;;;;;;;;9.10;61.47;95105.09;4968270;28;19977;-70
2023/09/19 05:39:43;;;;;;;;;;;;;;;9.08;60.96;95121.25;4969971;28;19974;-69
2023/09/19 05:42:09;;;;;;;;;;;;;;;9.43;59.55;95121.56;4968022;28;19960;-70
2023/09/19 05:44:35;;;;;;;;;;;;;;;9.01;61.30;95120.31;4967885;28;19985;-69
2023/09/19 05:47:01;;;;;;;;;;;;;;;8.90;60.31;95122.34;4970559;28;20303;-69
2023/09/19 05:49:27;;;;;;;;;;;;;;;9.06;60.57;95125.91;4964935;28;19971;-69
2023/09/19 05:51:54;;;;;;;;;;;;;;;8.90;61.56;95122.34;4965545;28;20054;-69
2023/09/19 05:54:20;;;;;;;;;;;;;;;8.42;62.68;95127.88;4962974;28;19997;-69
2023/09/19 05:56:47;;;;;;;;;;;;;;;9.08;61.48;95126.56;4968280;28;20582;-69
2023/09/19 05:59:15;;;;;;;;;;;;;;;9.41;59.43;95136.84;4968279;28;20050;-69
2023/09/19 06:01:42;;;;;;;;;;;;;;;9.41;60.47;95146.63;4972354;28;20468;-69
2023/09/19 06:04:07;;;;;;;;;;;;;;;9.52;59.10;95156.81;4970332;28;20013;-69
2023/09/19 06:06:33;;;;;;;;;;;;;;;9.67;59.13;95156.84;4965159;28;20092;-69
2023/09/19 06:08:58;;;;;;;;;;;;;;;9.31;60.30;95168.97;4959308;28;19976;-69
2023/09/19 06:11:26;;;;;;;;;;;;;;;9.76;58.07;95167.38;4968448;28;19959;-69
2023/09/19 06:13:53;;;;;;;;;;;;;;;9.64;58.87;95162.50;4973113;28;19977;-69
2023/09/19 06:16:19;;;;;;;;;;;;;;;9.81;58.29;95165.81;4958828;28;20465;-69
2023/09/19 06:18:45;;;;;;;;;;;;;;;9.78;59.21;95160.00;4971293;28;19967;-69
2023/09/19 06:21:11;;;;;;;;;;;;;;;9.46;59.55;95162.88;4969187;28;19981;-69
2023/09/19 06:23:36;;;;;;;;;;;;;;;9.37;60.83;95174.56;4970261;28;20035;-69
2023/09/19 06:26:01;;;;;;;;;;;;;;;9.46;60.07;95184.13;4963038;28;20012;-69
2023/09/19 06:28:27;;;;;;;;;;;;;;;9.66;59.91;95183.59;4966516;28;20040;-69
2023/09/19 06:30:53;;;;;;;;;;;;;;;9.60;59.95;95187.81;4959027;28;19987;-69
2023/09/19 06:33:21;;;;;;;;;;;;;;;10.13;58.66;95191.41;4965065;28;20015;-69
2023/09/19 06:35:46;;;;;;;;;;;;;;;10.36;58.37;95197.41;4963383;28;19959;-69
2023/09/19 06:38:13;;;;;;;;;;;;;;;9.88;59.24;95208.44;4962978;28;19960;-69
2023/09/19 06:40:38;;;;;;;;;;;;;;;9.92;59.51;95206.22;4963370;28;19995;-69
2023/09/19 06:43:03;;;;;;;;;;;;;;;10.19;59.68;95199.44;4967108;28;19964;-69
2023/09/19 06:45:29;;;;;;;;;;;;;;;10.25;59.86;95207.69;4960165;28;20039;-69
2023/09/19 06:47:57;;;;;;;;;;;;;;;9.20;62.73;95219.88;4967514;28;20223;-69
2023/09/19 06:50:22;;;;;;;;;;;;;;;9.36;61.44;95210.13;4969727;28;20441;-69
2023/09/19 06:52:51;;;;;;;;;;;;;;;9.62;61.10;95217.66;4965693;28;19978;-69
2023/09/19 06:55:19;;;;;;;;;;;;;;;8.91;63.62;95218.75;4970039;28;20196;-69
2023/09/19 06:57:44;;;;;;;;;;;;;;;9.65;61.40;95219.16;4968132;28;20501;-69
2023/09/19 07:00:18;;;;;;;;;;;;;;;9.33;60.90;95232.56;4969119;28;19981;-69
2023/09/19 07:03:04;;;;;;;;;;;;;;;9.82;60.25;95227.75;4965440;28;20556;-69
2023/09/19 07:05:30;;;;;;;;;;;;;;;10.44;58.31;95243.56;4968025;28;20630;-69
2023/09/19 07:07:56;;;;;;;;;;;;;;;10.65;57.54;95239.28;4967146;28;19987;-69
2023/09/19 07:10:23;;;;;;;;;;;;;;;10.41;57.92;95247.41;4965936;28;19952;-69
2023/09/19 07:12:54;;;;;;;;;;;;;;;10.49;58.07;95252.63;4967627;28;20044;-69
2023/09/19 07:15:20;;;;;;;;;;;;;;;10.79;57.53;95246.41;4968352;28;19962;-69
2023/09/19 07:17:47;;;;;;;;;;;;;;;11.13;56.04;95252.91;4965405;28;22256;-69
2023/09/19 07:20:16;;;;;;;;;;;;;;;11.35;55.70;95250.22;4967606;28;20081;-69
2023/09/19 07:22:41;;;;;;;;;;;;;;;10.18;57.20;95255.50;4968525;28;19956;-70
2023/09/19 07:25:07;;;;;;;;;;;;;;;10.92;56.17;95261.69;4965451;28;19966;-69
2023/09/19 07:27:32;;;;;;;;;;;;;;;10.86;55.62;95262.44;4966978;28;20407;-69
2023/09/19 07:29:58;;;;;;;;;;;;;;;10.26;58.62;95267.88;4963646;28;19974;-69
2023/09/19 07:32:24;;;;;;;;;;;;;;;10.75;56.42;95261.91;4968395;28;20913;-69
2023/09/19 07:34:49;;;;;;;;;;;;;;;9.88;58.14;95266.94;4965508;28;20085;-69
2023/09/19 07:37:15;;;;;;;;;;;;;;;10.94;56.49;95256.16;4966770;28;20135;-69
2023/09/19 07:39:41;;;;;;;;;;;;;;;10.59;56.88;95259.47;4964559;28;20043;-69
2023/09/19 07:42:07;;;;;;;;;;;;;;;10.39;55.49;95264.56;4968137;28;20044;-69
2023/09/19 07:44:32;;;;;;;;;;;;;;;10.88;54.99;95263.91;4963381;28;20088;-69
2023/09/19 07:46:58;;;;;;;;;;;;;;;11.08;53.45;95265.13;4968327;28;20640;-69
2023/09/19 07:49:23;;;;;;;;;;;;;;;10.78;54.01;95266.03;4965855;28;20041;-69
2023/09/19 07:51:48;;;;;;;;;;;;;;;11.40;53.55;95260.31;4968155;28;20220;-69
2023/09/19 07:54:14;;;;;;;;;;;;;;;10.95;53.14;95257.84;4970920;28;20102;-69
2023/09/19 07:56:40;;;;;;;;;;;;;;;11.38;53.37;95259.69;4968288;28;19968;-69
2023/09/19 07:59:05;;;;;;;;;;;;;;;11.13;52.77;95278.72;4966283;28;20514;-69
2023/09/19 08:01:31;;;;;;;;;;;;;;;11.50;53.04;95266.13;4965195;28;19978;-69
2023/09/19 08:03:56;;;;;;;;;;;;;;;11.99;52.29;95263.63;4964526;28;20029;-69
2023/09/19 08:06:21;;;;;;;;;;;;;;;11.68;51.89;95259.53;4969448;28;19970;-69
2023/09/19 08:08:49;;;;;;;;;;;;;;;10.88;52.82;95279.88;4975062;28;20091;-69
2023/09/19 08:11:21;;;;;;;;;;;;;;;11.14;52.26;95280.38;4964163;28;20044;-69
2023/09/19 08:13:48;;;;;;;;;;;;;;;10.61;53.19;95266.25;4962831;28;19971;-69
2023/09/19 08:16:14;;;;;;;;;;;;;;;9.53;55.80;95271.91;4959398;28;20065;-69
2023/09/19 08:18:40;;;;;;;;;;;;;;;9.34;56.79;95282.03;4964227;28;20006;-69
2023/09/19 08:21:10;;;;;;;;;;;;;;;10.73;54.28;95271.09;4966904;28;19975;-69
2023/09/19 08:23:35;;;;;;;;;;;;;;;10.23;54.56;95280.53;4963462;28;19951;-69
2023/09/19 08:26:06;;;;;;;;;;;;;;;10.40;53.73;95274.22;4968973;28;19970;-69
2023/09/19 08:28:31;;;;;;;;;;;;;;;10.21;55.34;95281.75;4973720;28;20810;-69
2023/09/19 08:31:01;;;;;;;;;;;;;;;10.72;54.01;95283.59;4967479;28;19964;-69
2023/09/19 08:33:26;;;;;;;;;;;;;;;10.87;52.58;95304.03;4967807;28;20154;-69
2023/09/19 08:35:51;;;;;;;;;;;;;;;10.93;53.15;95289.16;4968965;28;20025;-69
2023/09/19 08:38:17;;;;;;;;;;;;;;;11.52;51.54;95295.28;4966166;28;19975;-69
2023/09/19 08:40:43;;;;;;;;;;;;;;;11.03;53.30;95296.81;4968306;28;19978;-69
2023/09/19 08:43:08;;;;;;;;;;;;;;;11.31;52.28;95296.94;4969748;28;20193;-69
2023/09/19 08:45:34;;;;;;;;;;;;;;;11.38;51.57;95294.34;4967565;28;20328;-69
2023/09/19 08:47:59;;;;;;;;;;;;;;;11.04;52.44;95309.97;4967896;28;20059;-69
2023/09/19 08:50:26;;;;;;;;;;;;;;;11.01;52.60;95289.03;4968187;28;20071;-69
2023/09/19 08:52:54;;;;;;;;;;;;;;;10.57;54.44;95294.25;4967013;28;20068;-69
2023/09/19 08:55:22;;;;;;;;;;;;;;;10.51;53.98;95286.22;4967072;28;19994;-69
2023/09/19 08:57:49;;;;;;;;;;;;;;;10.30;54.06;95299.25;4966968;28;20201;-69
2023/09/19 09:00:17;;;;;;;;;;;;;;;9.35;55.08;95293.50;4967104;28;19980;-69
2023/09/19 09:02:43;;;;;;;;;;;;;;;9.91;54.67;95301.13;4970323;28;19954;-69
2023/09/19 09:05:09;;;;;;;;;;;;;;;10.21;54.62;95298.50;4967327;28;20149;-69
2023/09/19 09:07:34;;;;;;;;;;;;;;;10.09;54.75;95308.78;4969731;28;19955;-69
2023/09/19 09:10:00;;;;;;;;;;;;;;;10.77;52.04;95306.19;4966835;28;19997;-69
2023/09/19 09:12:25;;;;;;;;;;;;;;;11.43;50.62;95299.09;4967419;28;20039;-68
2023/09/19 09:14:52;;;;;;;;;;;;;;;10.65;51.20;95305.81;4967811;28;19992;-67
2023/09/19 09:17:20;;;;;;;;;;;;;;;11.10;51.46;95305.75;4967872;28;20035;-68
2023/09/19 09:19:48;;;;;;;;;;;;;;;11.19;53.21;95315.25;4966690;28;19948;-68
2023/09/19 09:22:14;;;;;;;;;;;;;;;11.25;51.22;95319.84;4969410;28;19982;-68
2023/09/19 09:24:58;;;;;;;;;;;;;;;11.84;50.43;95302.91;4966906;28;20019;-67
2023/09/19 09:27:23;;;;;;;;;;;;;;;11.38;52.04;95329.81;4970313;28;19970;-68
2023/09/19 09:29:52;;;;;;;;;;;;;;;10.97;51.95;95327.69;4968154;28;20958;-67
2023/09/19 09:32:24;;;;;;;;;;;;;;;11.44;50.99;95319.41;4967062;28;19971;-68
2023/09/19 09:34:53;;;;;;;;;;;;;;;11.18;50.86;95320.81;4969818;28;19951;-68
2023/09/19 09:37:21;;;;;;;;;;;;;;;11.46;50.22;95312.03;4970132;28;19988;-80
2023/09/19 09:39:58;;;;;;;;;;;;;;;11.34;50.85;95312.56;4974813;28;19978;-79
2023/09/19 09:42:31;;;;;;;;;;;;;;;9.91;53.74;95316.25;4959442;28;20670;-80
2023/09/19 09:45:13;;;;;;;;;;;;;;;11.16;50.27;95322.81;4961240;28;19993;-79
2023/09/19 09:47:41;;;;;;;;;;;;;;;11.43;49.87;95315.09;4955156;28;20613;-79
2023/09/19 09:50:16;;;;;;;;;;;;;;;11.61;49.51;95312.81;4964799;28;19948;-80
2023/09/19 09:52:46;;;;;;;;;;;;;;;11.39;50.58;95314.63;4968784;28;19962;-79
2023/09/19 09:55:12;;;;;;;;;;;;;;;12.20;48.46;95315.28;4965794;28;19967;-82
2023/09/19 09:57:40;;;;;;;;;;;;;;;10.52;52.02;95327.78;4971188;28;20081;-65
2023/09/19 10:02:40;;;;;;;;;;;;;;;12.70;48.34;95308.16;4968796;28;19949;-66
2023/09/19 10:08:04;;;;;;;;;;;;;;;13.43;45.24;95302.22;4964508;28;20294;-67
2023/09/19 10:10:43;;;;;;;;;;;;;;;13.48;45.55;95317.66;4970056;28;20019;-65
2023/09/19 10:13:12;;;;;;;;;;;;;;;13.14;45.78;95312.25;4967219;28;20119;-65
2023/09/19 10:15:37;;;;;;;;;;;;;;;12.58;46.61;95332.75;4966444;28;19946;-65
2023/09/19 10:18:08;;;;;;;;;;;;;;;12.49;46.27;95329.44;4964306;28;19958;-66
2023/09/19 10:20:35;;;;;;;;;;;;;;;13.22;45.50;95315.78;4967620;28;20926;-66
2023/09/19 10:23:00;;;;;;;;;;;;;;;12.79;45.73;95323.00;4966753;28;20705;-69
2023/09/19 10:25:28;;;;;;;;;;;;;;;12.67;47.22;95317.38;4968016;28;19981;-67
2023/09/19 10:27:55;;;;;;;;;;;;;;;12.61;46.84;95312.84;4967430;28;20773;-66
2023/09/19 10:30:20;;;;;;;;;;;;;;;12.31;45.77;95311.28;4966131;28;20574;-68
2023/09/19 10:32:46;;;;;;;;;;;;;;;12.63;46.34;95311.63;4964565;28;20300;-66
2023/09/19 10:35:13;;;;;;;;;;;;;;;13.38;44.60;95304.69;4967067;28;19949;-66
2023/09/19 10:37:38;;;;;;;;;;;;;;;13.62;44.16;95309.63;4965993;28;20480;-68
2023/09/19 10:40:04;;;;;;;;;;;;;;;13.22;44.70;95300.53;4965064;28;20047;-69
2023/09/19 10:42:29;;;;;;;;;;;;;;;13.20;45.25;95296.44;4964763;28;20451;-69
2023/09/19 10:44:55;;;;;;;;;;;;;;;12.78;45.11;95305.31;4965612;28;20067;-66
2023/09/19 10:47:24;;;;;;;;;;;;;;;12.58;45.72;95300.72;4964077;28;19963;-65
2023/09/19 10:49:49;;;;;;;;;;;;;;;13.60;44.48;95293.78;4973918;28;19965;-66
2023/09/19 10:52:19;;;;;;;;;;;;;;;14.00;43.35;95284.97;4964803;28;19956;-66
2023/09/19 10:54:45;;;;;;;;;;;;;;;13.64;43.76;95295.06;4965466;28;19937;-66
2023/09/19 10:57:12;;;;;;;;;;;;;;;13.67;44.42;95291.13;4966878;28;19969;-65
2023/09/19 10:59:37;;;;;;;;;;;;;;;13.95;42.43;95295.47;4960677;28;19979;-68
2023/09/19 11:02:17;;;;;;;;;;;;;;;14.41;43.34;95298.28;4966577;28;20071;-66
2023/09/19 11:04:42;;;;;;;;;;;;;;;14.64;43.48;95283.56;4968648;28;19996;-65
2023/09/19 11:07:16;;;;;;;;;;;;;;;13.68;42.78;95293.59;4965237;28;20057;-65
2023/09/19 11:09:54;;;;;;;;;;;;;;;14.28;42.27;95305.28;4966112;28;20417;-66
2023/09/19 11:12:28;;;;;;;;;;;;;;;13.48;42.98;95316.81;4964814;28;20604;-65
2023/09/19 11:14:54;;;;;;;;;;;;;;;13.87;42.68;95304.50;4966031;28;19948;-66
2023/09/19 11:17:20;;;;;;;;;;;;;;;11.93;45.04;95309.75;4965191;28;20174;-67
2023/09/19 11:22:58;;;;;;;;;;;;;;;12.18;45.07;95321.84;4965509;28;19958;-69
2023/09/19 11:25:30;;;;;;;;;;;;;;;12.57;44.44;95309.75;4965188;28;19963;-65
2023/09/19 11:30:36;;;;;;;;;;;;;;;13.17;43.39;95303.84;4963800;28;20443;-65
2023/09/19 11:33:31;;;;;;;;;;;;;;;13.15;44.43;95302.38;4961833;28;19994;-66
2023/09/19 11:36:00;;;;;;;;;;;;;;;13.68;43.79;95303.47;4965890;28;20358;-66
2023/09/19 11:38:49;;;;;;;;;;;;;;;13.23;42.10;95294.19;4962779;28;21516;-67
2023/09/19 11:41:28;;;;;;;;;;;;;;;12.47;44.07;95311.94;4963343;28;19959;-66
2023/09/19 11:43:58;;;;;;;;;;;;;;;14.17;41.83;95296.06;4964615;28;19997;-67
2023/09/19 11:46:24;;;;;;;;;;;;;;;14.07;41.36;95291.13;4962862;28;19986;-67
2023/09/19 11:48:49;;;;;;;;;;;;;;;14.08;39.93;95303.47;4960486;28;20404;-65
2023/09/19 11:51:27;;;;;;;;;;;;;;;12.69;43.49;95301.16;4962995;28;19979;-66
2023/09/19 11:53:57;;;;;;;;;;;;;;;12.63;44.41;95303.63;4962380;28;19974;-65
2023/09/19 11:56:24;;;;;;;;;;;;;;;14.23;40.57;95289.03;4961880;28;20620;-65
2023/09/19 11:58:53;;;;;;;;;;;;;;;14.47;39.83;95294.75;4963034;28;20148;-65
2023/09/19 12:01:36;;;;;;;;;;;;;;;14.33;39.43;95284.09;4963793;28;20008;-72
2023/09/19 12:04:04;;;;;;;;;;;;;;;13.74;40.94;95297.31;4964940;28;20175;-71
2023/09/19 12:06:29;;;;;;;;;;;;;;;12.89;43.54;95291.38;4964760;28;19960;-65
2023/09/19 12:08:55;;;;;;;;;;;;;;;12.73;43.06;95302.41;4964408;28;20350;-65
2023/09/19 12:11:20;;;;;;;;;;;;;;;13.70;41.46;95290.69;4963859;28;19945;-64
2023/09/19 12:13:46;;;;;;;;;;;;;;;13.43;41.29;95291.53;4964045;28;19955;-66
2023/09/19 12:16:15;;;;;;;;;;;;;;;12.31;43.02;95300.59;4962527;28;19990;-65
2023/09/19 12:18:41;;;;;;;;;;;;;;;12.77;42.93;95293.81;4944632;28;19988;-65
2023/09/19 12:21:07;;;;;;;;;;;;;;;12.95;41.75;95307.66;4962176;28;20435;-66
2023/09/19 12:23:37;;;;;;;;;;;;;;;13.42;41.41;95294.41;4961971;28;20034;-65
2023/09/19 12:26:12;;;;;;;;;;;;;;;11.66;42.94;95301.53;4964576;28;19999;-65
2023/09/19 12:28:39;;;;;;;;;;;;;;;12.75;41.05;95308.41;4962653;28;20065;-65
2023/09/19 12:31:08;;;;;;;;;;;;;;;13.21;40.43;95308.75;4961086;28;20085;-65
2023/09/19 12:33:35;;;;;;;;;;;;;;;12.87;41.81;95314.81;4963756;28;19961;-64
2023/09/19 12:36:03;;;;;;;;;;;;;;;12.43;43.20;95298.19;4960627;28;20417;-68
2023/09/19 12:38:28;;;;;;;;;;;;;;;13.50;41.49;95306.75;4962566;28;20402;-77
2023/09/19 12:40:58;;;;;;;;;;;;;;;14.33;39.81;95304.66;4957424;28;19980;-76
2023/09/19 12:43:24;;;;;;;;;;;;;;;13.97;39.29;95292.59;4951299;28;20543;-76
2023/09/19 12:45:49;;;;;;;;;;;;;;;14.60;39.28;95293.88;4962072;28;20049;-76
2023/09/19 12:48:21;;;;;;;;;;;;;;;14.63;39.88;95309.53;4964936;28;20124;-76
2023/09/19 12:51:00;;;;;;;;;;;;;;;13.67;40.59;95307.19;4979566;28;19946;-75
2023/09/19 12:53:25;;;;;;;;;;;;;;;14.28;37.53;95283.06;4982822;28;19968;-76
2023/09/19 12:55:57;;;;;;;;;;;;;;;14.48;38.32;95274.16;4980400;28;20309;-75
2023/09/19 12:58:23;;;;;;;;;;;;;;;15.46;36.10;95280.25;4976222;28;19966;-76
2023/09/19 13:00:51;;;;;;;;;;;;;;;15.83;35.72;95278.75;4979588;28;20041;-74
2023/09/19 13:03:21;;;;;;;;;;;;;;;15.11;36.60;95280.69;4971736;28;19991;-75
2023/09/19 13:05:57;;;;;;;;;;;;;;;15.24;36.48;95302.03;4972476;28;20502;-77